Terminal Aerodrome Forecast
Issued by NWS Cleveland, OH

Home | Current Version | Previous Version | Graphics & Text | Print | Product List | Glossary Off
Versions: 1 2 3 4 5 6 7 8 9 10 11 12 13 14 15 16 17 18 19 20

000
FTUS41 KCLE 282000 AAA
TAFMFD
TAF AMD
KMFD 282022Z 2820/2918 20010KT P6SM SCT025 BKN035
      TEMPO 2821/2824 1SM -SHSN OVC015
     FM290100 18010KT P6SM BKN050
     FM291500 18015G25KT P6SM VCSH BKN035 OVC100=

USA.gov is the U.S. government's official web portal to all federal, state and local government web resources and services.